Fort Yukon Airport Fort Yukon US
ICAO: PFYU
IATA:
Category: Medium
Scheduled Services:

Elevation: 433 ft
TransAlt. 18000 ft.

Airport Communications:
AWOS 3:125.8
ANCHORAGE CNTR:135
CTAF:122.5
FAIRBANKS RDO:122.1
EIELSON RANGE CON:125.3
TWEB:114.4

PFYU Zoom In..

If you have problems with the map follow the link
https://www.worldairports.se/pages/airport.php?
ICAO=PFYU

Runways:

(A) RW 04 length 5000 ft width 100 ft
---- / hdg 35

(B) RW 22 length 5000 ft width 100 ft
---- / hdg 215

Location; PFYU
Day. 20 / Time. 20.56 Zulu
* Altimeter: 30.28
* Temperature: -21° c. 5.8°f.
* Wind from: 050° Speed 06 kn.
Dewpoint: -23° c.
Visibility: 9 Statute Miles.
Clouds: Few 300 ft.

PFYU 202056Z 05006KT 9SM FEW003 M21/M23 A3028 RMK AO2 SLP280 T12061228 58005


Wind From 050°
Speed 06 kn.

 
 
jpsmedia.com for Web Design worldairports.se 2019   terms of use